sensor_id;sensor_type;location;lat;lon;timestamp;temperature;humidity
25170;DHT22;13129;48.012;10.352;2023-11-19T05:34:25;8.00;99.90
25170;DHT22;13129;48.012;10.352;2023-11-19T05:36:51;8.10;99.90
25170;DHT22;13129;48.012;10.352;2023-11-19T05:39:17;8.10;99.90
25170;DHT22;13129;48.012;10.352;2023-11-19T05:41:46;8.10;99.90
25170;DHT22;13129;48.012;10.352;2023-11-19T05:44:11;8.20;99.90
25170;DHT22;13129;48.012;10.352;2023-11-19T05:46:37;8.10;99.90
25170;DHT22;13129;48.012;10.352;2023-11-19T05:49:08;8.10;99.90
25170;DHT22;13129;48.012;10.352;2023-11-19T05:51:37;8.10;99.90
25170;DHT22;13129;48.012;10.352;2023-11-19T05:54:02;8.30;99.90
25170;DHT22;13129;48.012;10.352;2023-11-19T05:56:28;8.20;99.90
25170;DHT22;13129;48.012;10.352;2023-11-19T05:58:58;8.30;99.90
25170;DHT22;13129;48.012;10.352;2023-11-19T06:01:25;8.20;99.90
25170;DHT22;13129;48.012;10.352;2023-11-19T06:03:52;8.40;99.90
25170;DHT22;13129;48.012;10.352;2023-11-19T06:06:18;8.20;99.90
25170;DHT22;13129;48.012;10.352;2023-11-19T06:08:44;8.30;99.90
25170;DHT22;13129;48.012;10.352;2023-11-19T06:11:10;8.30;99.90
25170;DHT22;13129;48.012;10.352;2023-11-19T06:13:40;8.30;99.90
25170;DHT22;13129;48.012;10.352;2023-11-19T06:16:06;8.30;99.90
25170;DHT22;13129;48.012;10.352;2023-11-19T06:18:32;8.20;99.90
25170;DHT22;13129;48.012;10.352;2023-11-19T06:20:58;8.30;99.90
25170;DHT22;13129;48.012;10.352;2023-11-19T06:23:24;8.30;99.90
25170;DHT22;13129;48.012;10.352;2023-11-19T06:25:49;8.30;99.90
25170;DHT22;13129;48.012;10.352;2023-11-19T06:28:15;8.30;99.90
25170;DHT22;13129;48.012;10.352;2023-11-19T06:30:40;8.40;99.90
25170;DHT22;13129;48.012;10.352;2023-11-19T06:33:07;8.40;99.90
25170;DHT22;13129;48.012;10.352;2023-11-19T06:35:32;8.40;99.90
25170;DHT22;13129;48.012;10.352;2023-11-19T06:38:04;8.40;99.90
25170;DHT22;13129;48.012;10.352;2023-11-19T06:40:34;8.40;99.90
25170;DHT22;13129;48.012;10.352;2023-11-19T06:43:03;8.50;99.90
25170;DHT22;13129;48.012;10.352;2023-11-19T06:45:30;8.50;99.90
25170;DHT22;13129;48.012;10.352;2023-11-19T06:47:56;8.60;99.90
25170;DHT22;13129;48.012;10.352;2023-11-19T06:50:21;8.60;99.90
25170;DHT22;13129;48.012;10.352;2023-11-19T06:52:47;8.60;99.90
25170;DHT22;13129;48.012;10.352;2023-11-19T06:55:12;8.60;99.90
25170;DHT22;13129;48.012;10.352;2023-11-19T06:57:38;8.70;99.90
25170;DHT22;13129;48.012;10.352;2023-11-19T07:00:05;8.60;99.90
25170;DHT22;13129;48.012;10.352;2023-11-19T07:02:31;8.70;99.90
25170;DHT22;13129;48.012;10.352;2023-11-19T07:04:57;8.70;99.90
25170;DHT22;13129;48.012;10.352;2023-11-19T07:07:22;8.70;99.90
25170;DHT22;13129;48.012;10.352;2023-11-19T07:09:48;8.80;99.90
25170;DHT22;13129;48.012;10.352;2023-11-19T07:12:14;8.70;99.90
25170;DHT22;13129;48.012;10.352;2023-11-19T07:14:40;8.80;99.90
25170;DHT22;13129;48.012;10.352;2023-11-19T07:17:07;8.80;99.90
25170;DHT22;13129;48.012;10.352;2023-11-19T07:19:34;8.90;99.90
25170;DHT22;13129;48.012;10.352;2023-11-19T07:22:02;8.80;99.90
25170;DHT22;13129;48.012;10.352;2023-11-19T07:24:27;8.90;99.90
25170;DHT22;13129;48.012;10.352;2023-11-19T07:26:54;8.90;99.90
25170;DHT22;13129;48.012;10.352;2023-11-19T07:29:20;8.90;99.90
25170;DHT22;13129;48.012;10.352;2023-11-19T07:31:48;8.90;99.90
25170;DHT22;13129;48.012;10.352;2023-11-19T07:34:14;9.00;99.90
25170;DHT22;13129;48.012;10.352;2023-11-19T07:36:39;9.00;99.90
25170;DHT22;13129;48.012;10.352;2023-11-19T07:39:05;9.00;99.90
25170;DHT22;13129;48.012;10.352;2023-11-19T07:41:31;9.00;99.90
25170;DHT22;13129;48.012;10.352;2023-11-19T07:43:57;9.00;99.90
25170;DHT22;13129;48.012;10.352;2023-11-19T07:46:23;9.00;99.90
25170;DHT22;13129;48.012;10.352;2023-11-19T07:48:48;9.00;99.90
25170;DHT22;13129;48.012;10.352;2023-11-19T07:51:14;9.10;99.90
25170;DHT22;13129;48.012;10.352;2023-11-19T07:53:41;9.20;99.90
25170;DHT22;13129;48.012;10.352;2023-11-19T07:56:07;9.20;99.90
25170;DHT22;13129;48.012;10.352;2023-11-19T07:58:33;9.20;99.90
25170;DHT22;13129;48.012;10.352;2023-11-19T08:00:59;9.20;99.90
25170;DHT22;13129;48.012;10.352;2023-11-19T08:03:25;9.20;99.90
25170;DHT22;13129;48.012;10.352;2023-11-19T08:05:50;9.30;99.90
25170;DHT22;13129;48.012;10.352;2023-11-19T08:08:16;9.30;99.90
25170;DHT22;13129;48.012;10.352;2023-11-19T08:10:43;9.30;99.90
25170;DHT22;13129;48.012;10.352;2023-11-19T08:13:13;9.40;99.90
25170;DHT22;13129;48.012;10.352;2023-11-19T08:15:38;9.40;99.90
25170;DHT22;13129;48.012;10.352;2023-11-19T08:18:04;9.40;99.90
25170;DHT22;13129;48.012;10.352;2023-11-19T08:20:30;9.50;99.90
25170;DHT22;13129;48.012;10.352;2023-11-19T08:22:56;9.50;99.90
25170;DHT22;13129;48.012;10.352;2023-11-19T08:25:21;9.60;99.90
25170;DHT22;13129;48.012;10.352;2023-11-19T08:27:47;9.60;99.90
25170;DHT22;13129;48.012;10.352;2023-11-19T08:30:13;9.60;99.90
25170;DHT22;13129;48.012;10.352;2023-11-19T08:32:38;9.70;99.90
25170;DHT22;13129;48.012;10.352;2023-11-19T08:35:04;9.80;99.90
25170;DHT22;13129;48.012;10.352;2023-11-19T08:37:30;9.90;99.90
25170;DHT22;13129;48.012;10.352;2023-11-19T08:39:56;9.90;99.90
25170;DHT22;13129;48.012;10.352;2023-11-19T08:42:22;10.00;99.90
25170;DHT22;13129;48.012;10.352;2023-11-19T08:44:51;10.10;99.90
25170;DHT22;13129;48.012;10.352;2023-11-19T08:47:19;10.10;99.90
25170;DHT22;13129;48.012;10.352;2023-11-19T08:49:45;10.10;99.90
25170;DHT22;13129;48.012;10.352;2023-11-19T08:52:11;10.20;99.90
25170;DHT22;13129;48.012;10.352;2023-11-19T08:54:37;10.20;99.90
25170;DHT22;13129;48.012;10.352;2023-11-19T08:57:03;10.30;99.90
25170;DHT22;13129;48.012;10.352;2023-11-19T08:59:30;10.40;99.90
25170;DHT22;13129;48.012;10.352;2023-11-19T09:01:55;10.50;99.90
25170;DHT22;13129;48.012;10.352;2023-11-19T09:04:21;10.60;99.90
25170;DHT22;13129;48.012;10.352;2023-11-19T09:06:49;10.60;99.90
25170;DHT22;13129;48.012;10.352;2023-11-19T09:09:15;10.70;99.90
25170;DHT22;13129;48.012;10.352;2023-11-19T09:11:41;10.70;99.90
25170;DHT22;13129;48.012;10.352;2023-11-19T09:14:06;10.80;99.90
25170;DHT22;13129;48.012;10.352;2023-11-19T09:16:32;10.90;99.90
25170;DHT22;13129;48.012;10.352;2023-11-19T09:18:58;10.90;99.90
25170;DHT22;13129;48.012;10.352;2023-11-19T09:21:25;10.80;99.90
25170;DHT22;13129;48.012;10.352;2023-11-19T09:23:51;10.80;99.90
25170;DHT22;13129;48.012;10.352;2023-11-19T09:26:18;10.70;99.90
25170;DHT22;13129;48.012;10.352;2023-11-19T09:28:44;10.80;99.90
25170;DHT22;13129;48.012;10.352;2023-11-19T09:31:16;10.70;99.90
25170;DHT22;13129;48.012;10.352;2023-11-19T09:33:42;10.80;99.90
25170;DHT22;13129;48.012;10.352;2023-11-19T09:36:08;10.80;99.90
25170;DHT22;13129;48.012;10.352;2023-11-19T09:38:34;10.90;99.90
25170;DHT22;13129;48.012;10.352;2023-11-19T09:41:05;10.90;99.90
25170;DHT22;13129;48.012;10.352;2023-11-19T09:43:34;10.90;99.90
25170;DHT22;13129;48.012;10.352;2023-11-19T09:46:05;10.90;99.90
25170;DHT22;13129;48.012;10.352;2023-11-19T09:48:36;10.90;99.90
25170;DHT22;13129;48.012;10.352;2023-11-19T09:51:07;10.90;99.90
25170;DHT22;13129;48.012;10.352;2023-11-19T09:53:33;11.00;99.90
25170;DHT22;13129;48.012;10.352;2023-11-19T09:56:00;11.00;99.90
25170;DHT22;13129;48.012;10.352;2023-11-19T09:58:29;11.00;99.90
25170;DHT22;13129;48.012;10.352;2023-11-19T10:00:55;11.10;99.90
25170;DHT22;13129;48.012;10.352;2023-11-19T10:03:22;11.10;99.90
25170;DHT22;13129;48.012;10.352;2023-11-19T10:05:48;11.20;99.90
25170;DHT22;13129;48.012;10.352;2023-11-19T10:08:17;11.20;99.90
25170;DHT22;13129;48.012;10.352;2023-11-19T10:10:42;11.30;99.90
25170;DHT22;13129;48.012;10.352;2023-11-19T10:13:28;11.20;99.90
25170;DHT22;13129;48.012;10.352;2023-11-19T10:15:55;11.20;99.90
25170;DHT22;13129;48.012;10.352;2023-11-19T10:18:26;11.20;99.90
25170;DHT22;13129;48.012;10.352;2023-11-19T10:20:52;11.30;99.90
25170;DHT22;13129;48.012;10.352;2023-11-19T10:23:18;11.30;99.90
25170;DHT22;13129;48.012;10.352;2023-11-19T10:25:43;11.40;99.90
25170;DHT22;13129;48.012;10.352;2023-11-19T10:28:09;11.60;99.90
25170;DHT22;13129;48.012;10.352;2023-11-19T10:30:35;11.80;99.90
25170;DHT22;13129;48.012;10.352;2023-11-19T10:33:08;12.00;99.90
25170;DHT22;13129;48.012;10.352;2023-11-19T10:35:50;12.20;99.90
25170;DHT22;13129;48.012;10.352;2023-11-19T10:38:17;12.30;99.90
25170;DHT22;13129;48.012;10.352;2023-11-19T10:40:43;12.30;99.90
25170;DHT22;13129;48.012;10.352;2023-11-19T10:43:09;12.50;99.90
25170;DHT22;13129;48.012;10.352;2023-11-19T10:45:36;12.60;99.90
25170;DHT22;13129;48.012;10.352;2023-11-19T10:48:03;13.40;99.90
25170;DHT22;13129;48.012;10.352;2023-11-19T10:50:36;14.20;99.90
25170;DHT22;13129;48.012;10.352;2023-11-19T10:53:03;14.70;99.90
25170;DHT22;13129;48.012;10.352;2023-11-19T10:55:30;15.20;99.90
25170;DHT22;13129;48.012;10.352;2023-11-19T10:57:59;16.10;99.90
25170;DHT22;13129;48.012;10.352;2023-11-19T11:00:28;17.70;99.90
25170;DHT22;13129;48.012;10.352;2023-11-19T11:02:59;18.20;99.90
25170;DHT22;13129;48.012;10.352;2023-11-19T11:05:31;17.80;99.90
25170;DHT22;13129;48.012;10.352;2023-11-19T11:07:58;17.10;99.90
25170;DHT22;13129;48.012;10.352;2023-11-19T11:10:26;17.50;99.90
25170;DHT22;13129;48.012;10.352;2023-11-19T11:12:52;18.30;99.90
25170;DHT22;13129;48.012;10.352;2023-11-19T11:15:27;18.60;99.90
25170;DHT22;13129;48.012;10.352;2023-11-19T11:17:57;18.80;99.90
25170;DHT22;13129;48.012;10.352;2023-11-19T11:20:24;18.50;99.90
25170;DHT22;13129;48.012;10.352;2023-11-19T11:23:10;18.00;99.90
25170;DHT22;13129;48.012;10.352;2023-11-19T11:28:56;16.80;99.90
25170;DHT22;13129;48.012;10.352;2023-11-19T11:35:06;15.80;99.90
25170;DHT22;13129;48.012;10.352;2023-11-19T11:37:47;15.30;99.90
25170;DHT22;13129;48.012;10.352;2023-11-19T11:40:15;15.10;99.90
25170;DHT22;13129;48.012;10.352;2023-11-19T11:42:42;15.10;99.90
25170;DHT22;13129;48.012;10.352;2023-11-19T11:45:12;15.00;99.90
25170;DHT22;13129;48.012;10.352;2023-11-19T11:48:23;14.70;99.90
25170;DHT22;13129;48.012;10.352;2023-11-19T11:50:24;14.50;99.90
25170;DHT22;13129;48.012;10.352;2023-11-19T11:55:28;14.00;99.90
25170;DHT22;13129;48.012;10.352;2023-11-19T11:57:57;13.90;99.90
25170;DHT22;13129;48.012;10.352;2023-11-19T12:00:27;13.80;99.90
25170;DHT22;13129;48.012;10.352;2023-11-19T12:02:55;13.70;99.90
25170;DHT22;13129;48.012;10.352;2023-11-19T12:05:21;13.40;99.90
25170;DHT22;13129;48.012;10.352;2023-11-19T12:08:00;13.10;99.90
25170;DHT22;13129;48.012;10.352;2023-11-19T12:10:29;12.90;99.90
25170;DHT22;13129;48.012;10.352;2023-11-19T12:13:00;12.90;99.90
25170;DHT22;13129;48.012;10.352;2023-11-19T12:15:26;12.80;99.90
25170;DHT22;13129;48.012;10.352;2023-11-19T12:17:53;12.80;99.90
25170;DHT22;13129;48.012;10.352;2023-11-19T12:20:21;12.70;99.90
25170;DHT22;13129;48.012;10.352;2023-11-19T12:22:48;12.70;99.90
25170;DHT22;13129;48.012;10.352;2023-11-19T12:25:15;12.60;99.90
25170;DHT22;13129;48.012;10.352;2023-11-19T12:27:42;12.70;99.90
25170;DHT22;13129;48.012;10.352;2023-11-19T12:30:08;12.50;99.90
25170;DHT22;13129;48.012;10.352;2023-11-19T12:32:38;12.50;99.90
25170;DHT22;13129;48.012;10.352;2023-11-19T12:35:04;12.60;99.90
25170;DHT22;13129;48.012;10.352;2023-11-19T12:37:30;12.80;99.90
25170;DHT22;13129;48.012;10.352;2023-11-19T12:39:57;13.00;99.90
25170;DHT22;13129;48.012;10.352;2023-11-19T12:42:51;13.20;99.90
25170;DHT22;13129;48.012;10.352;2023-11-19T12:45:17;13.40;99.90
25170;DHT22;13129;48.012;10.352;2023-11-19T12:47:43;13.40;99.90
25170;DHT22;13129;48.012;10.352;2023-11-19T12:50:09;13.50;99.90
25170;DHT22;13129;48.012;10.352;2023-11-19T12:52:38;13.50;99.90
25170;DHT22;13129;48.012;10.352;2023-11-19T12:55:28;13.70;99.90
25170;DHT22;13129;48.012;10.352;2023-11-19T12:57:54;13.60;99.90
25170;DHT22;13129;48.012;10.352;2023-11-19T13:00:25;13.60;99.90
25170;DHT22;13129;48.012;10.352;2023-11-19T13:02:55;13.50;99.90
25170;DHT22;13129;48.012;10.352;2023-11-19T13:05:33;13.30;99.90
25170;DHT22;13129;48.012;10.352;2023-11-19T13:10:29;13.10;99.90
25170;DHT22;13129;48.012;10.352;2023-11-19T13:13:04;13.10;99.90
25170;DHT22;13129;48.012;10.352;2023-11-19T13:15:31;13.20;99.90
25170;DHT22;13129;48.012;10.352;2023-11-19T13:17:56;13.20;99.90
25170;DHT22;13129;48.012;10.352;2023-11-19T13:20:22;13.10;99.90
25170;DHT22;13129;48.012;10.352;2023-11-19T13:22:59;13.00;99.90
25170;DHT22;13129;48.012;10.352;2023-11-19T13:25:25;12.90;99.90
25170;DHT22;13129;48.012;10.352;2023-11-19T13:27:51;12.90;99.90
25170;DHT22;13129;48.012;10.352;2023-11-19T13:30:17;12.80;99.90
25170;DHT22;13129;48.012;10.352;2023-11-19T13:32:42;12.80;99.90
25170;DHT22;13129;48.012;10.352;2023-11-19T13:35:09;12.70;99.90
25170;DHT22;13129;48.012;10.352;2023-11-19T13:37:35;12.60;99.90
25170;DHT22;13129;48.012;10.352;2023-11-19T13:40:01;12.50;99.90
25170;DHT22;13129;48.012;10.352;2023-11-19T13:42:27;12.30;99.90
25170;DHT22;13129;48.012;10.352;2023-11-19T13:44:52;12.20;99.90
25170;DHT22;13129;48.012;10.352;2023-11-19T13:47:18;12.10;99.90
25170;DHT22;13129;48.012;10.352;2023-11-19T13:49:44;12.00;99.90
25170;DHT22;13129;48.012;10.352;2023-11-19T13:52:10;12.00;99.90
25170;DHT22;13129;48.012;10.352;2023-11-19T13:54:37;11.90;99.90
25170;DHT22;13129;48.012;10.352;2023-11-19T13:57:03;11.80;99.90
25170;DHT22;13129;48.012;10.352;2023-11-19T13:59:32;11.70;99.90
25170;DHT22;13129;48.012;10.352;2023-11-19T14:01:58;11.60;99.90
25170;DHT22;13129;48.012;10.352;2023-11-19T14:04:24;11.50;99.90
25170;DHT22;13129;48.012;10.352;2023-11-19T14:06:50;11.50;99.90
25170;DHT22;13129;48.012;10.352;2023-11-19T14:09:16;11.40;99.90
25170;DHT22;13129;48.012;10.352;2023-11-19T14:11:43;11.30;99.90
25170;DHT22;13129;48.012;10.352;2023-11-19T14:14:08;11.30;99.90
25170;DHT22;13129;48.012;10.352;2023-11-19T14:16:35;11.20;99.90
25170;DHT22;13129;48.012;10.352;2023-11-19T14:19:01;11.20;99.90
25170;DHT22;13129;48.012;10.352;2023-11-19T14:21:27;11.20;99.90
25170;DHT22;13129;48.012;10.352;2023-11-19T14:23:53;11.20;99.90
25170;DHT22;13129;48.012;10.352;2023-11-19T14:26:18;11.20;99.90
25170;DHT22;13129;48.012;10.352;2023-11-19T14:28:44;11.20;99.90
25170;DHT22;13129;48.012;10.352;2023-11-19T14:31:10;11.10;99.90
25170;DHT22;13129;48.012;10.352;2023-11-19T14:33:35;11.10;99.90
25170;DHT22;13129;48.012;10.352;2023-11-19T14:36:03;11.10;99.90
25170;DHT22;13129;48.012;10.352;2023-11-19T14:38:29;11.10;99.90
25170;DHT22;13129;48.012;10.352;2023-11-19T14:40:55;11.10;99.90
25170;DHT22;13129;48.012;10.352;2023-11-19T14:43:21;11.10;99.90
25170;DHT22;13129;48.012;10.352;2023-11-19T14:45:46;11.20;99.90
25170;DHT22;13129;48.012;10.352;2023-11-19T14:48:12;11.20;99.90
25170;DHT22;13129;48.012;10.352;2023-11-19T14:50:37;11.20;99.90
25170;DHT22;13129;48.012;10.352;2023-11-19T14:53:03;11.20;99.90
25170;DHT22;13129;48.012;10.352;2023-11-19T14:55:29;11.20;99.90
25170;DHT22;13129;48.012;10.352;2023-11-19T14:57:54;11.20;99.90
25170;DHT22;13129;48.012;10.352;2023-11-19T15:00:22;11.20;99.90
25170;DHT22;13129;48.012;10.352;2023-11-19T15:02:47;11.20;99.90
25170;DHT22;13129;48.012;10.352;2023-11-19T15:05:13;11.10;99.90
25170;DHT22;13129;48.012;10.352;2023-11-19T15:07:39;11.10;99.90
25170;DHT22;13129;48.012;10.352;2023-11-19T15:10:06;11.00;99.90
25170;DHT22;13129;48.012;10.352;2023-11-19T15:12:38;10.90;99.90
25170;DHT22;13129;48.012;10.352;2023-11-19T15:15:06;10.90;99.90
25170;DHT22;13129;48.012;10.352;2023-11-19T15:17:33;10.80;99.90
25170;DHT22;13129;48.012;10.352;2023-11-19T15:19:59;10.70;99.90
25170;DHT22;13129;48.012;10.352;2023-11-19T15:22:24;10.70;99.90
25170;DHT22;13129;48.012;10.352;2023-11-19T15:24:50;10.70;99.90
25170;DHT22;13129;48.012;10.352;2023-11-19T15:27:15;10.70;99.90
25170;DHT22;13129;48.012;10.352;2023-11-19T15:29:41;10.60;99.90
25170;DHT22;13129;48.012;10.352;2023-11-19T15:32:07;10.50;99.90
25170;DHT22;13129;48.012;10.352;2023-11-19T15:34:33;10.50;99.90
25170;DHT22;13129;48.012;10.352;2023-11-19T15:36:59;10.50;99.90
25170;DHT22;13129;48.012;10.352;2023-11-19T15:39:26;10.50;99.90
25170;DHT22;13129;48.012;10.352;2023-11-19T15:41:54;10.50;99.90
25170;DHT22;13129;48.012;10.352;2023-11-19T15:44:20;10.50;99.90
25170;DHT22;13129;48.012;10.352;2023-11-19T15:46:46;10.40;99.90
25170;DHT22;13129;48.012;10.352;2023-11-19T15:49:12;10.40;99.90
25170;DHT22;13129;48.012;10.352;2023-11-19T15:51:37;10.40;99.90
25170;DHT22;13129;48.012;10.352;2023-11-19T15:54:03;10.40;99.90
25170;DHT22;13129;48.012;10.352;2023-11-19T15:56:30;10.30;99.90
25170;DHT22;13129;48.012;10.352;2023-11-19T15:58:56;10.30;99.90
25170;DHT22;13129;48.012;10.352;2023-11-19T16:01:22;10.20;99.90
25170;DHT22;13129;48.012;10.352;2023-11-19T16:03:47;10.30;99.90
25170;DHT22;13129;48.012;10.352;2023-11-19T16:06:13;10.20;99.90
25170;DHT22;13129;48.012;10.352;2023-11-19T16:08:38;10.10;99.90
25170;DHT22;13129;48.012;10.352;2023-11-19T16:11:05;10.10;99.90
25170;DHT22;13129;48.012;10.352;2023-11-19T16:13:31;10.00;99.90
25170;DHT22;13129;48.012;10.352;2023-11-19T16:15:56;10.00;99.90
25170;DHT22;13129;48.012;10.352;2023-11-19T16:18:22;10.00;99.90
25170;DHT22;13129;48.012;10.352;2023-11-19T16:20:48;9.90;99.90
25170;DHT22;13129;48.012;10.352;2023-11-19T16:23:13;9.90;99.90
25170;DHT22;13129;48.012;10.352;2023-11-19T16:25:41;9.90;99.90
25170;DHT22;13129;48.012;10.352;2023-11-19T16:28:06;9.80;99.90
25170;DHT22;13129;48.012;10.352;2023-11-19T16:30:33;9.80;99.90
25170;DHT22;13129;48.012;10.352;2023-11-19T16:32:59;9.90;99.90
25170;DHT22;13129;48.012;10.352;2023-11-19T16:35:25;9.90;99.90
25170;DHT22;13129;48.012;10.352;2023-11-19T16:37:51;9.90;99.90
25170;DHT22;13129;48.012;10.352;2023-11-19T16:40:17;9.90;99.90
25170;DHT22;13129;48.012;10.352;2023-11-19T16:42:44;9.90;99.90
25170;DHT22;13129;48.012;10.352;2023-11-19T16:45:12;9.90;99.90
25170;DHT22;13129;48.012;10.352;2023-11-19T16:47:39;9.80;99.90
25170;DHT22;13129;48.012;10.352;2023-11-19T16:50:04;9.80;99.90
25170;DHT22;13129;48.012;10.352;2023-11-19T16:52:30;9.90;99.90
25170;DHT22;13129;48.012;10.352;2023-11-19T16:55:00;9.90;99.90
25170;DHT22;13129;48.012;10.352;2023-11-19T16:57:29;9.90;99.90
25170;DHT22;13129;48.012;10.352;2023-11-19T17:02:31;9.90;99.90
25170;DHT22;13129;48.012;10.352;2023-11-19T17:04:57;9.90;99.90
25170;DHT22;13129;48.012;10.352;2023-11-19T17:07:23;10.00;99.90
25170;DHT22;13129;48.012;10.352;2023-11-19T17:09:51;9.90;99.90
25170;DHT22;13129;48.012;10.352;2023-11-19T17:12:16;9.90;99.90
25170;DHT22;13129;48.012;10.352;2023-11-19T17:14:42;9.90;99.90
25170;DHT22;13129;48.012;10.352;2023-11-19T17:17:07;9.90;99.90
25170;DHT22;13129;48.012;10.352;2023-11-19T17:19:33;9.90;99.90
25170;DHT22;13129;48.012;10.352;2023-11-19T17:21:58;9.90;99.90
25170;DHT22;13129;48.012;10.352;2023-11-19T17:24:24;9.90;99.90
25170;DHT22;13129;48.012;10.352;2023-11-19T17:26:50;9.90;99.90
25170;DHT22;13129;48.012;10.352;2023-11-19T17:29:16;9.90;99.90
25170;DHT22;13129;48.012;10.352;2023-11-19T17:31:43;9.80;99.90
25170;DHT22;13129;48.012;10.352;2023-11-19T17:34:09;9.80;99.90
25170;DHT22;13129;48.012;10.352;2023-11-19T17:36:35;9.80;99.90
25170;DHT22;13129;48.012;10.352;2023-11-19T17:39:02;9.70;99.90
25170;DHT22;13129;48.012;10.352;2023-11-19T17:41:29;9.70;99.90
25170;DHT22;13129;48.012;10.352;2023-11-19T17:43:55;9.70;99.90
25170;DHT22;13129;48.012;10.352;2023-11-19T17:46:21;9.60;99.90
25170;DHT22;13129;48.012;10.352;2023-11-19T17:48:46;9.50;99.90
25170;DHT22;13129;48.012;10.352;2023-11-19T17:51:12;9.50;99.90
25170;DHT22;13129;48.012;10.352;2023-11-19T17:53:41;9.50;99.90
25170;DHT22;13129;48.012;10.352;2023-11-19T17:56:07;9.50;99.90
25170;DHT22;13129;48.012;10.352;2023-11-19T17:58:33;9.50;99.90
25170;DHT22;13129;48.012;10.352;2023-11-19T18:00:58;9.40;99.90
25170;DHT22;13129;48.012;10.352;2023-11-19T18:03:24;9.40;99.90
25170;DHT22;13129;48.012;10.352;2023-11-19T18:05:50;9.40;99.90
25170;DHT22;13129;48.012;10.352;2023-11-19T18:08:16;9.40;99.90
25170;DHT22;13129;48.012;10.352;2023-11-19T18:10:48;9.40;99.90
25170;DHT22;13129;48.012;10.352;2023-11-19T18:13:14;9.40;99.90
25170;DHT22;13129;48.012;10.352;2023-11-19T18:15:41;9.40;99.90
25170;DHT22;13129;48.012;10.352;2023-11-19T18:18:07;9.30;99.90
25170;DHT22;13129;48.012;10.352;2023-11-19T18:20:35;9.30;99.90
25170;DHT22;13129;48.012;10.352;2023-11-19T18:23:01;9.40;99.90
25170;DHT22;13129;48.012;10.352;2023-11-19T18:25:27;9.40;99.90
25170;DHT22;13129;48.012;10.352;2023-11-19T18:27:53;9.50;99.90
25170;DHT22;13129;48.012;10.352;2023-11-19T18:30:18;9.30;99.90
25170;DHT22;13129;48.012;10.352;2023-11-19T18:32:45;9.30;99.90
25170;DHT22;13129;48.012;10.352;2023-11-19T18:35:11;9.30;99.90
25170;DHT22;13129;48.012;10.352;2023-11-19T18:37:38;9.40;99.90
25170;DHT22;13129;48.012;10.352;2023-11-19T18:40:05;9.50;99.90
25170;DHT22;13129;48.012;10.352;2023-11-19T18:42:34;9.60;99.90
25170;DHT22;13129;48.012;10.352;2023-11-19T18:44:59;9.70;99.90
25170;DHT22;13129;48.012;10.352;2023-11-19T18:47:25;9.80;99.90
25170;DHT22;13129;48.012;10.352;2023-11-19T18:49:51;9.80;99.90
25170;DHT22;13129;48.012;10.352;2023-11-19T18:52:17;9.90;99.90
25170;DHT22;13129;48.012;10.352;2023-11-19T18:54:42;9.90;99.90
25170;DHT22;13129;48.012;10.352;2023-11-19T18:57:08;10.00;99.90
25170;DHT22;13129;48.012;10.352;2023-11-19T18:59:34;10.10;99.90
25170;DHT22;13129;48.012;10.352;2023-11-19T19:01:59;10.10;99.90
25170;DHT22;13129;48.012;10.352;2023-11-19T19:04:25;10.20;99.90
25170;DHT22;13129;48.012;10.352;2023-11-19T19:06:53;10.10;99.90
25170;DHT22;13129;48.012;10.352;2023-11-19T19:09:19;10.20;99.90
25170;DHT22;13129;48.012;10.352;2023-11-19T19:11:45;10.20;99.90
25170;DHT22;13129;48.012;10.352;2023-11-19T19:14:12;10.20;99.90
25170;DHT22;13129;48.012;10.352;2023-11-19T19:16:39;10.20;99.90
25170;DHT22;13129;48.012;10.352;2023-11-19T19:19:05;10.20;99.90
25170;DHT22;13129;48.012;10.352;2023-11-19T19:21:30;10.20;99.90
25170;DHT22;13129;48.012;10.352;2023-11-19T19:23:59;10.20;99.90
25170;DHT22;13129;48.012;10.352;2023-11-19T19:26:29;10.30;99.90
25170;DHT22;13129;48.012;10.352;2023-11-19T19:28:55;10.20;99.90
25170;DHT22;13129;48.012;10.352;2023-11-19T19:31:21;10.20;99.90
25170;DHT22;13129;48.012;10.352;2023-11-19T19:33:47;10.10;99.90
25170;DHT22;13129;48.012;10.352;2023-11-19T19:36:18;10.10;99.90
25170;DHT22;13129;48.012;10.352;2023-11-19T19:38:43;10.00;99.90
25170;DHT22;13129;48.012;10.352;2023-11-19T19:41:09;10.10;99.90
25170;DHT22;13129;48.012;10.352;2023-11-19T19:43:35;9.80;99.90
25170;DHT22;13129;48.012;10.352;2023-11-19T19:46:00;9.70;99.90
25170;DHT22;13129;48.012;10.352;2023-11-19T19:48:26;9.60;99.90
25170;DHT22;13129;48.012;10.352;2023-11-19T19:50:51;9.50;99.90
25170;DHT22;13129;48.012;10.352;2023-11-19T19:53:17;9.50;99.90
25170;DHT22;13129;48.012;10.352;2023-11-19T19:55:43;9.50;99.90
25170;DHT22;13129;48.012;10.352;2023-11-19T19:58:08;9.40;99.90
25170;DHT22;13129;48.012;10.352;2023-11-19T20:00:36;9.40;99.90
25170;DHT22;13129;48.012;10.352;2023-11-19T20:03:02;9.40;99.90
25170;DHT22;13129;48.012;10.352;2023-11-19T20:05:28;9.40;99.90
25170;DHT22;13129;48.012;10.352;2023-11-19T20:07:54;9.50;99.90
25170;DHT22;13129;48.012;10.352;2023-11-19T20:10:23;9.40;99.90
25170;DHT22;13129;48.012;10.352;2023-11-19T20:12:48;9.50;99.90
25170;DHT22;13129;48.012;10.352;2023-11-19T20:15:14;9.40;99.90
25170;DHT22;13129;48.012;10.352;2023-11-19T20:17:43;9.40;99.90
25170;DHT22;13129;48.012;10.352;2023-11-19T20:20:09;9.40;99.90
25170;DHT22;13129;48.012;10.352;2023-11-19T20:22:36;9.40;99.90
25170;DHT22;13129;48.012;10.352;2023-11-19T20:25:02;9.50;99.90
25170;DHT22;13129;48.012;10.352;2023-11-19T20:27:28;9.40;99.90
25170;DHT22;13129;48.012;10.352;2023-11-19T20:29:54;9.50;99.90
25170;DHT22;13129;48.012;10.352;2023-11-19T20:32:20;9.50;99.90
25170;DHT22;13129;48.012;10.352;2023-11-19T20:34:45;9.40;99.90
25170;DHT22;13129;48.012;10.352;2023-11-19T20:37:11;9.40;99.90
25170;DHT22;13129;48.012;10.352;2023-11-19T20:39:36;9.30;99.90
25170;DHT22;13129;48.012;10.352;2023-11-19T20:42:02;9.30;99.90
25170;DHT22;13129;48.012;10.352;2023-11-19T20:44:29;9.20;99.90
25170;DHT22;13129;48.012;10.352;2023-11-19T20:46:55;9.20;99.90
25170;DHT22;13129;48.012;10.352;2023-11-19T20:49:21;9.20;99.90
25170;DHT22;13129;48.012;10.352;2023-11-19T20:51:50;9.10;99.90
25170;DHT22;13129;48.012;10.352;2023-11-19T20:54:15;9.10;99.90
25170;DHT22;13129;48.012;10.352;2023-11-19T20:56:41;9.00;99.90
25170;DHT22;13129;48.012;10.352;2023-11-19T20:59:10;9.00;99.90
25170;DHT22;13129;48.012;10.352;2023-11-19T21:01:36;8.90;99.90
25170;DHT22;13129;48.012;10.352;2023-11-19T21:04:02;8.90;99.90
25170;DHT22;13129;48.012;10.352;2023-11-19T21:06:28;8.80;99.90
25170;DHT22;13129;48.012;10.352;2023-11-19T21:08:54;8.80;99.90